Terminal Aerodrome Forecast
Issued by NWS

Home | Current Version | Previous Version | Text Only | Print | Product List | Glossary On
Versions: 1 2 3 4 5 6 7 8 9 10 11 12 13 14
000
FTUS45 KSLC 051153
TAFENV
TAF
KENV 051153Z 0512/0612 33020G30KT P6SM VCSH SCT030 BKN060
     FM051300 34010KT P6SM SCT040 BKN080
     FM051600 VRB05KT P6SM SCT070
      AMD LTD TO CLD VIS AND WIND=

USA.gov is the U.S. government's official web portal to all federal, state and local government web resources and services.